createdAt,value
2022-08-07T00:00:26.265Z,50.60
2022-08-07T00:03:06.425Z,50.89
2022-08-07T00:05:37.602Z,51.30
2022-08-07T00:08:07.809Z,51.65
2022-08-07T00:10:48.171Z,51.62
2022-08-07T00:13:26.755Z,52.04
2022-08-07T00:15:55.534Z,51.99
2022-08-07T00:18:25.893Z,52.24
2022-08-07T00:21:01.636Z,52.29
2022-08-07T00:23:34.104Z,52.44
2022-08-07T00:26:13.002Z,52.66
2022-08-07T00:28:55.456Z,52.67
2022-08-07T00:31:38.061Z,52.70
2022-08-07T00:34:09.764Z,52.88
2022-08-07T00:36:43.291Z,53.02
2022-08-07T00:39:16.457Z,52.98
2022-08-07T00:41:53.330Z,53.17
2022-08-07T00:44:29.954Z,53.41
2022-08-07T00:46:57.872Z,53.68
2022-08-07T00:50:20.697Z,53.91
2022-08-07T00:52:19.924Z,53.94
2022-08-07T00:54:53.715Z,54.30
2022-08-07T00:57:25.928Z,54.41
2022-08-07T00:59:54.640Z,54.39
2022-08-07T01:02:29.334Z,54.76
2022-08-07T01:04:59.084Z,54.82
2022-08-07T01:07:29.674Z,54.80
2022-08-07T01:10:05.888Z,55.02
2022-08-07T01:12:53.343Z,54.99
2022-08-07T01:16:01.131Z,55.43
2022-08-07T01:18:16.944Z,55.37
2022-08-07T01:20:57.366Z,55.66
2022-08-07T01:23:38.743Z,55.73
2022-08-07T01:26:11.826Z,55.85
2022-08-07T01:28:46.373Z,56.15
2022-08-07T01:31:21.414Z,56.30
2022-08-07T01:33:55.368Z,56.36
2022-08-07T01:36:34.004Z,56.53
2022-08-07T01:39:10.679Z,56.62
2022-08-07T01:42:07.593Z,56.71
2022-08-07T01:44:32.885Z,56.66
2022-08-07T01:47:14.349Z,56.75
2022-08-07T01:49:44.218Z,56.93
2022-08-07T01:52:15.397Z,57.06
2022-08-07T01:54:44.915Z,57.17
2022-08-07T01:57:27.886Z,57.04
2022-08-07T02:00:01.152Z,57.28
2022-08-07T02:03:12.138Z,57.46
2022-08-07T02:05:43.205Z,57.39
2022-08-07T02:08:17.439Z,57.58
2022-08-07T02:10:55.056Z,57.78
2022-08-07T02:13:56.698Z,57.74
2022-08-07T02:16:19.890Z,57.83
2022-08-07T02:18:56.726Z,57.75
2022-08-07T02:21:26.694Z,58.15
2022-08-07T02:24:17.820Z,57.85
2022-08-07T02:26:46.660Z,58.11
2022-08-07T02:29:14.760Z,58.28
2022-08-07T02:31:51.623Z,58.30
2022-08-07T02:34:22.925Z,58.17
2022-08-07T02:36:55.030Z,58.50
2022-08-07T02:39:42.377Z,58.41
2022-08-07T02:42:16.922Z,58.50
2022-08-07T02:44:48.953Z,58.57
2022-08-07T02:47:23.499Z,58.72
2022-08-07T02:49:57.776Z,59.00
2022-08-07T02:52:32.639Z,59.26
2022-08-07T02:55:04.063Z,59.14
2022-08-07T02:57:36.618Z,59.16
2022-08-07T03:00:10.977Z,59.36
2022-08-07T03:02:41.982Z,59.32
2022-08-07T03:05:24.696Z,59.48
2022-08-07T03:08:07.945Z,59.69
2022-08-07T03:10:40.614Z,59.65
2022-08-07T03:13:19.640Z,59.96
2022-08-07T03:15:56.526Z,60.07
2022-08-07T03:18:34.944Z,60.12
2022-08-07T03:21:08.505Z,60.53
2022-08-07T03:24:20.558Z,60.69
2022-08-07T03:26:32.046Z,60.89
2022-08-07T03:29:01.921Z,60.98
2022-08-07T03:31:43.182Z,60.88
2022-08-07T03:34:18.643Z,61.09
2022-08-07T03:36:54.301Z,61.11
2022-08-07T03:39:59.298Z,60.89
2022-08-07T03:42:12.372Z,61.12
2022-08-07T03:44:41.615Z,60.83
2022-08-07T03:47:14.388Z,60.91
2022-08-07T03:49:47.986Z,61.06
2022-08-07T03:52:27.005Z,60.80
2022-08-07T03:55:07.433Z,61.15
2022-08-07T03:58:34.862Z,60.89
2022-08-07T04:00:33.788Z,61.17
2022-08-07T04:03:05.263Z,60.83
2022-08-07T04:05:40.163Z,60.75
2022-08-07T04:08:16.354Z,60.88
2022-08-07T04:10:54.573Z,60.95
2022-08-07T04:14:09.240Z,60.96
2022-08-07T04:16:31.410Z,60.88
2022-08-07T04:19:12.764Z,61.09
2022-08-07T04:21:59.055Z,61.04
2022-08-07T04:24:38.816Z,60.78
2022-08-07T04:27:23.671Z,60.93
2022-08-07T04:30:01.549Z,60.89
2022-08-07T04:32:58.657Z,61.03
2022-08-07T04:35:35.048Z,61.18
2022-08-07T04:38:07.062Z,61.02
2022-08-07T04:40:51.299Z,60.94
2022-08-07T04:44:12.215Z,61.06
2022-08-07T04:47:08.293Z,61.06
2022-08-07T04:49:41.456Z,60.96
2022-08-07T04:52:18.916Z,61.15
2022-08-07T04:55:14.995Z,60.91
2022-08-07T04:58:10.239Z,60.72
2022-08-07T05:00:58.292Z,60.56
2022-08-07T05:04:01.005Z,60.43
2022-08-07T05:06:20.392Z,60.37
2022-08-07T05:09:01.218Z,60.15
2022-08-07T05:11:58.109Z,60.14
2022-08-07T05:14:52.971Z,59.98
2022-08-07T05:17:52.659Z,60.03
2022-08-07T05:20:16.219Z,60.04
2022-08-07T05:22:46.513Z,59.71
2022-08-07T05:25:36.492Z,59.76
2022-08-07T05:28:20.004Z,59.82
2022-08-07T05:30:52.111Z,59.90
2022-08-07T05:33:21.904Z,59.72
2022-08-07T05:35:51.958Z,59.86
2022-08-07T05:38:59.763Z,59.62
2022-08-07T05:41:12.261Z,59.84
2022-08-07T05:44:01.237Z,59.73
2022-08-07T05:46:37.828Z,59.77
2022-08-07T05:49:11.654Z,59.82
2022-08-07T05:51:46.217Z,59.61
2022-08-07T05:54:30.568Z,59.33
2022-08-07T05:57:01.496Z,59.38
2022-08-07T05:59:38.900Z,59.12
2022-08-07T06:02:29.089Z,59.09
2022-08-07T06:05:10.906Z,58.92
2022-08-07T06:08:14.109Z,58.56
2022-08-07T06:10:32.771Z,58.52
2022-08-07T06:13:02.280Z,58.06
2022-08-07T06:15:42.459Z,57.85
2022-08-07T06:18:14.285Z,57.61
2022-08-07T06:20:50.350Z,57.29
2022-08-07T06:23:46.529Z,56.93
2022-08-07T06:26:27.573Z,56.53
2022-08-07T06:28:59.024Z,56.16
2022-08-07T06:31:38.414Z,55.81
2022-08-07T06:34:15.638Z,55.51
2022-08-07T06:36:52.054Z,55.28
2022-08-07T06:40:16.904Z,54.77
2022-08-07T06:42:16.018Z,54.34
2022-08-07T06:45:11.110Z,54.03
2022-08-07T06:47:57.626Z,53.54
2022-08-07T06:50:30.669Z,53.42
2022-08-07T06:53:01.119Z,53.01
2022-08-07T06:55:53.769Z,52.62
2022-08-07T06:58:24.481Z,52.46
2022-08-07T07:01:00.272Z,52.11
2022-08-07T07:03:48.767Z,51.69
2022-08-07T07:06:23.824Z,51.04
2022-08-07T07:08:52.185Z,50.89
2022-08-07T07:12:09.824Z,50.89
2022-08-07T07:14:09.909Z,50.13
2022-08-07T07:16:49.509Z,49.93
2022-08-07T07:19:55.652Z,49.52
2022-08-07T07:22:33.718Z,48.53
2022-08-07T07:25:02.798Z,48.52
2022-08-07T07:28:01.900Z,47.90
2022-08-07T07:30:38.458Z,47.56
2022-08-07T07:33:11.914Z,47.14
2022-08-07T07:35:43.979Z,47.03
2022-08-07T07:38:23.636Z,46.48
2022-08-07T07:40:56.633Z,46.62
2022-08-07T07:43:48.172Z,46.77
2022-08-07T07:46:37.999Z,46.49
2022-08-07T07:49:09.334Z,45.91
2022-08-07T07:51:59.756Z,45.13
2022-08-07T07:54:30.005Z,44.66
2022-08-07T07:57:02.979Z,44.43
2022-08-07T07:59:52.720Z,44.20
2022-08-07T08:02:34.220Z,44.36
2022-08-07T08:05:05.416Z,43.86
2022-08-07T08:07:59.588Z,43.13
2022-08-07T08:10:35.614Z,43.47
2022-08-07T08:13:10.608Z,42.63
2022-08-07T08:15:58.811Z,42.43
2022-08-07T08:18:30.450Z,42.36
2022-08-07T08:21:00.697Z,41.85
2022-08-07T08:23:49.147Z,41.12
2022-08-07T08:26:37.372Z,40.92
2022-08-07T08:29:06.378Z,40.55
2022-08-07T08:31:59.260Z,40.01
2022-08-07T08:34:34.058Z,39.98
2022-08-07T08:38:21.218Z,39.20
2022-08-07T08:41:02.730Z,38.87
2022-08-07T08:43:32.094Z,38.54
2022-08-07T08:46:41.226Z,38.38
2022-08-07T08:49:46.158Z,38.78
2022-08-07T08:52:40.903Z,38.40
2022-08-07T08:55:55.429Z,37.79
2022-08-07T08:58:36.458Z,37.36
2022-08-07T09:01:19.241Z,36.89
2022-08-07T09:04:00.427Z,36.98
2022-08-07T09:06:48.517Z,36.17
2022-08-07T09:09:48.357Z,36.49
2022-08-07T09:12:41.458Z,35.41
2022-08-07T09:16:21.957Z,35.23
2022-08-07T09:18:36.850Z,35.15
2022-08-07T09:21:13.622Z,35.02
2022-08-07T09:24:58.612Z,35.19
2022-08-07T09:27:59.562Z,34.46
2022-08-07T09:30:46.708Z,34.54
2022-08-07T09:33:41.309Z,34.45
2022-08-07T09:36:16.148Z,34.77
2022-08-07T09:39:11.299Z,34.38
2022-08-07T09:42:17.022Z,33.69
2022-08-07T09:47:37.257Z,33.64
2022-08-07T09:48:29.703Z,33.22
2022-08-07T09:52:16.435Z,33.29
2022-08-07T09:54:27.174Z,33.21
2022-08-07T09:57:36.783Z,33.45
2022-08-07T10:00:19.032Z,33.04
2022-08-07T10:04:03.705Z,33.00
2022-08-07T10:06:24.512Z,32.50
2022-08-07T10:09:42.968Z,32.24
2022-08-07T10:12:53.059Z,31.96
2022-08-07T10:15:49.576Z,31.73
2022-08-07T10:18:35.390Z,31.28
2022-08-07T10:22:12.332Z,31.16
2022-08-07T10:24:49.656Z,30.79
2022-08-07T10:27:46.516Z,30.18
2022-08-07T10:30:25.030Z,30.18
2022-08-07T10:32:59.621Z,30.39
2022-08-07T10:35:55.506Z,30.68
2022-08-07T10:39:13.518Z,30.67
2022-08-07T10:42:01.626Z,30.66
2022-08-07T10:45:11.867Z,31.09
2022-08-07T10:48:35.054Z,31.14
2022-08-07T10:51:16.879Z,31.68
2022-08-07T10:54:08.832Z,32.02
2022-08-07T10:57:03.102Z,32.15
2022-08-07T10:59:37.162Z,32.24
2022-08-07T11:02:35.120Z,31.73
2022-08-07T11:05:16.788Z,31.31
2022-08-07T11:08:02.843Z,30.78
2022-08-07T11:10:34.916Z,30.17
2022-08-07T11:13:42.472Z,30.02
2022-08-07T11:16:07.155Z,29.90
2022-08-07T11:18:44.221Z,29.63
2022-08-07T11:21:47.118Z,29.08
2022-08-07T11:24:28.892Z,28.62
2022-08-07T11:27:21.674Z,28.56
2022-08-07T11:30:18.291Z,28.59
2022-08-07T11:33:08.130Z,28.69
2022-08-07T11:36:01.406Z,28.26
2022-08-07T11:39:02.711Z,28.04
2022-08-07T11:42:01.678Z,28.02
2022-08-07T11:44:52.650Z,27.66
2022-08-07T11:47:56.517Z,27.88
2022-08-07T11:50:57.949Z,27.84
2022-08-07T11:53:56.982Z,27.42
2022-08-07T11:56:29.287Z,27.32
2022-08-07T11:59:00.391Z,27.23
2022-08-07T12:02:01.189Z,26.92
2022-08-07T12:04:47.716Z,26.50
2022-08-07T12:07:27.590Z,26.11
2022-08-07T12:10:25.321Z,26.06
2022-08-07T12:13:11.534Z,26.09
2022-08-07T12:16:06.057Z,25.97
2022-08-07T12:18:51.281Z,25.87
2022-08-07T12:21:55.584Z,25.92
2022-08-07T12:26:00.440Z,25.92
2022-08-07T12:28:09.742Z,26.49
2022-08-07T12:30:46.718Z,26.80
2022-08-07T12:33:28.175Z,26.89
2022-08-07T12:36:02.213Z,26.99
2022-08-07T12:38:42.785Z,26.95
2022-08-07T12:41:17.286Z,27.43
2022-08-07T12:44:02.316Z,27.70
2022-08-07T12:47:00.498Z,27.59
2022-08-07T12:50:40.184Z,27.64
2022-08-07T12:53:29.057Z,27.81
2022-08-07T12:56:27.874Z,27.71
2022-08-07T12:58:59.579Z,27.82
2022-08-07T13:01:40.056Z,27.91
2022-08-07T13:04:49.071Z,28.08
2022-08-07T13:08:14.553Z,28.43
2022-08-07T13:11:16.284Z,28.55
2022-08-07T13:14:10.200Z,28.47
2022-08-07T13:16:44.303Z,28.66
2022-08-07T13:19:50.342Z,28.52
2022-08-07T13:22:28.377Z,28.54
2022-08-07T13:25:15.215Z,28.61
2022-08-07T13:28:10.952Z,28.44
2022-08-07T13:31:02.069Z,28.32
2022-08-07T13:34:30.139Z,28.13
2022-08-07T13:36:57.431Z,28.17
2022-08-07T13:40:33.990Z,28.21
2022-08-07T13:42:38.881Z,28.19
2022-08-07T13:46:06.337Z,28.20
2022-08-07T13:48:07.745Z,28.27
2022-08-07T13:51:00.062Z,28.34
2022-08-07T13:53:35.917Z,28.19
2022-08-07T13:56:36.294Z,27.98
2022-08-07T13:59:25.697Z,28.46
2022-08-07T14:02:05.259Z,28.56
2022-08-07T14:04:54.410Z,28.90
2022-08-07T14:07:28.846Z,28.70
2022-08-07T14:10:20.432Z,29.33
2022-08-07T14:13:00.698Z,29.49
2022-08-07T14:15:37.325Z,29.94
2022-08-07T14:18:27.613Z,30.09
2022-08-07T14:21:21.026Z,30.25
2022-08-07T14:24:12.910Z,30.74
2022-08-07T14:28:11.704Z,31.91
2022-08-07T14:30:02.846Z,32.54
2022-08-07T14:32:46.160Z,33.03
2022-08-07T14:35:42.845Z,33.51
2022-08-07T14:38:30.259Z,33.81
2022-08-07T14:41:05.212Z,34.01
2022-08-07T14:43:55.792Z,34.48
2022-08-07T14:46:31.052Z,34.64
2022-08-07T14:49:17.209Z,34.87
2022-08-07T14:52:03.004Z,35.22
2022-08-07T14:54:41.776Z,35.48
2022-08-07T15:00:04.310Z,34.80
2022-08-07T15:08:32.276Z,34.64
2022-08-07T15:11:06.805Z,34.92
2022-08-07T15:13:41.851Z,34.75
2022-08-07T15:16:14.631Z,34.92
2022-08-07T15:18:48.800Z,35.02
2022-08-07T15:21:43.905Z,34.95
2022-08-07T15:25:12.824Z,35.58
2022-08-07T15:27:11.504Z,35.68
2022-08-07T15:30:04.545Z,35.89
2022-08-07T15:36:00.832Z,36.38
2022-08-07T15:38:31.170Z,36.40
2022-08-07T15:41:23.732Z,36.26
2022-08-07T15:44:07.053Z,36.19
2022-08-07T15:46:51.778Z,36.27
2022-08-07T15:52:30.473Z,36.65
2022-08-07T15:55:03.378Z,36.70
2022-08-07T15:57:47.603Z,36.69
2022-08-07T16:00:31.848Z,36.55
2022-08-07T16:03:06.682Z,36.44
2022-08-07T16:05:50.681Z,36.61
2022-08-07T16:08:33.090Z,36.55
2022-08-07T16:11:27.240Z,36.70
2022-08-07T16:13:59.984Z,37.02
2022-08-07T16:16:51.264Z,37.30
2022-08-07T16:20:04.648Z,37.47
2022-08-07T16:22:58.534Z,37.56
2022-08-07T16:26:01.970Z,38.30
2022-08-07T16:30:06.976Z,38.89
2022-08-07T16:32:06.733Z,39.90
2022-08-07T16:35:00.101Z,40.62
2022-08-07T16:38:05.230Z,41.49
2022-08-07T16:41:01.345Z,41.84
2022-08-07T16:44:46.248Z,42.19
2022-08-07T16:47:16.366Z,42.74
2022-08-07T16:50:41.723Z,43.28
2022-08-07T16:53:48.154Z,43.78
2022-08-07T16:56:59.351Z,44.23
2022-08-07T16:59:47.494Z,44.66
2022-08-07T17:02:53.547Z,45.02
2022-08-07T17:06:01.719Z,45.20
2022-08-07T17:09:08.877Z,45.50
2022-08-07T17:12:04.160Z,45.50
2022-08-07T17:14:56.663Z,45.62
2022-08-07T17:17:26.880Z,45.41
2022-08-07T17:20:37.369Z,45.30
2022-08-07T17:23:21.015Z,45.35
2022-08-07T17:25:53.884Z,44.99
2022-08-07T17:28:35.627Z,44.80
2022-08-07T17:31:23.777Z,44.97
2022-08-07T17:34:15.071Z,45.08
2022-08-07T17:36:59.790Z,44.89
2022-08-07T17:39:58.878Z,44.91
2022-08-07T17:42:36.214Z,45.03
2022-08-07T17:45:35.204Z,45.04
2022-08-07T17:48:12.679Z,44.90
2022-08-07T17:51:02.343Z,45.01
2022-08-07T17:54:00.853Z,45.10
2022-08-07T17:56:29.002Z,45.11
2022-08-07T17:59:20.473Z,45.12
2022-08-07T18:02:10.782Z,45.45
2022-08-07T18:05:20.950Z,45.16
2022-08-07T18:08:18.634Z,45.58
2022-08-07T18:12:07.680Z,45.64
2022-08-07T18:14:01.570Z,45.56
2022-08-07T18:16:36.445Z,45.50
2022-08-07T18:21:04.280Z,45.53
2022-08-07T18:22:54.201Z,45.70
2022-08-07T18:25:40.835Z,45.67
2022-08-07T18:28:57.745Z,45.60
2022-08-07T18:31:50.113Z,45.78
2022-08-07T18:35:01.410Z,45.67
2022-08-07T18:38:56.220Z,45.99
2022-08-07T18:41:10.383Z,46.07
2022-08-07T18:43:58.264Z,46.07
2022-08-07T18:46:43.242Z,45.88
2022-08-07T18:50:31.321Z,46.16
2022-08-07T18:52:53.171Z,46.20
2022-08-07T18:55:55.981Z,45.95
2022-08-07T18:58:59.656Z,45.91
2022-08-07T19:02:31.780Z,46.10
2022-08-07T19:05:10.761Z,46.23
2022-08-07T19:08:18.405Z,46.32
2022-08-07T19:10:55.750Z,46.58
2022-08-07T19:13:40.521Z,46.64
2022-08-07T19:17:00.403Z,46.79
2022-08-07T19:19:27.977Z,46.74
2022-08-07T19:22:30.764Z,46.98
2022-08-07T19:25:05.511Z,46.92
2022-08-07T19:28:29.187Z,47.17
2022-08-07T19:31:03.257Z,47.18
2022-08-07T19:33:33.385Z,47.31
2022-08-07T19:36:05.817Z,47.78
2022-08-07T19:38:52.514Z,47.43
2022-08-07T19:41:39.067Z,48.21
2022-08-07T19:44:21.182Z,49.34
2022-08-07T19:46:57.742Z,50.54
2022-08-07T19:49:57.599Z,52.19
2022-08-07T19:52:22.634Z,54.11
2022-08-07T19:54:56.214Z,56.30
2022-08-07T19:57:56.866Z,57.26
2022-08-07T20:00:29.259Z,58.56
2022-08-07T20:03:35.182Z,60.06
2022-08-07T20:06:15.303Z,61.44
2022-08-07T20:09:01.703Z,63.24
2022-08-07T20:12:01.658Z,64.14
2022-08-07T20:14:32.008Z,65.69
2022-08-07T20:17:03.597Z,65.96
2022-08-07T20:19:47.719Z,66.74
2022-08-07T20:22:29.005Z,66.87
2022-08-07T20:25:19.279Z,67.78
2022-08-07T20:27:54.355Z,67.25
2022-08-07T20:30:33.266Z,67.83
2022-08-07T20:33:05.093Z,68.30
2022-08-07T20:35:54.362Z,68.68
2022-08-07T20:38:34.081Z,68.96
2022-08-07T20:41:05.756Z,69.34
2022-08-07T20:43:36.168Z,70.14
2022-08-07T20:46:25.745Z,70.51
2022-08-07T20:49:59.424Z,70.47
2022-08-07T20:51:51.064Z,70.63
2022-08-07T20:54:30.208Z,70.03
2022-08-07T20:57:05.049Z,70.08
2022-08-07T21:00:07.937Z,70.42
2022-08-07T21:02:54.080Z,70.49
2022-08-07T21:05:51.484Z,70.74
2022-08-07T21:08:36.523Z,70.93
2022-08-07T21:11:18.474Z,70.27
2022-08-07T21:14:16.269Z,70.07
2022-08-07T21:17:06.543Z,70.12
2022-08-07T21:19:51.341Z,69.96
2022-08-07T21:22:33.273Z,70.08
2022-08-07T21:25:18.132Z,69.76
2022-08-07T21:27:53.762Z,69.55
2022-08-07T21:30:29.895Z,68.83
2022-08-07T21:33:13.120Z,68.07
2022-08-07T21:36:11.846Z,68.03
2022-08-07T21:39:45.456Z,68.90
2022-08-07T21:42:37.761Z,68.78
2022-08-07T21:46:09.549Z,68.84
2022-08-07T21:48:33.630Z,68.96
2022-08-07T21:51:27.412Z,69.57
2022-08-07T21:54:13.118Z,70.08
2022-08-07T21:56:49.220Z,69.50
2022-08-07T21:59:17.624Z,70.01
2022-08-07T22:02:11.314Z,70.20
2022-08-07T22:04:53.545Z,69.95
2022-08-07T22:07:31.616Z,70.20
2022-08-07T22:10:14.955Z,70.68
2022-08-07T22:12:49.666Z,70.83
2022-08-07T22:16:45.111Z,70.61
2022-08-07T22:18:57.816Z,70.79
2022-08-07T22:22:02.181Z,69.96
2022-08-07T22:24:32.647Z,69.62
2022-08-07T22:27:12.865Z,70.03
2022-08-07T22:29:52.363Z,69.39
2022-08-07T22:32:37.780Z,68.65
2022-08-07T22:35:11.634Z,67.92
2022-08-07T22:38:10.654Z,68.05
2022-08-07T22:40:54.405Z,68.08
2022-08-07T22:43:34.032Z,68.62
2022-08-07T22:46:42.969Z,69.10
2022-08-07T22:49:54.310Z,68.80
2022-08-07T22:52:55.145Z,68.93
2022-08-07T22:55:30.246Z,69.33
2022-08-07T22:58:15.954Z,69.32
2022-08-07T23:01:08.802Z,69.64
2022-08-07T23:03:57.874Z,69.94
2022-08-07T23:06:27.243Z,69.91
2022-08-07T23:10:04.436Z,70.35
2022-08-07T23:12:55.792Z,70.33
2022-08-07T23:16:06.386Z,70.14
2022-08-07T23:18:38.149Z,70.55
2022-08-07T23:21:23.458Z,70.40
2022-08-07T23:24:38.507Z,70.52
2022-08-07T23:27:33.569Z,70.92
2022-08-07T23:30:38.787Z,71.93
2022-08-07T23:34:19.850Z,71.71
2022-08-07T23:36:29.159Z,71.50
2022-08-07T23:39:22.140Z,72.03
2022-08-07T23:42:30.395Z,72.25
2022-08-07T23:45:49.958Z,72.67
2022-08-07T23:48:22.938Z,72.80
2022-08-07T23:52:57.829Z,72.91
2022-08-07T23:54:28.458Z,73.33
2022-08-07T23:57:34.884Z,73.27
